createdAt,value
2019-02-12T00:01:15.776Z,101645.84
2019-02-12T00:03:45.793Z,101653.32
2019-02-12T00:06:15.671Z,101666.05
2019-02-12T00:08:45.518Z,101667.70
2019-02-12T00:11:15.314Z,101664.83
2019-02-12T00:13:45.323Z,101685.16
2019-02-12T00:16:15.427Z,101693.69
2019-02-12T00:18:45.320Z,101694.58
2019-02-12T00:21:15.355Z,101691.22
2019-02-12T00:23:45.427Z,101691.52
2019-02-12T00:26:15.318Z,101699.59
2019-02-12T00:28:45.113Z,101706.41
2019-02-12T00:31:15.229Z,101706.55
2019-02-12T00:33:45.189Z,101715.18
2019-02-12T00:36:17.348Z,101711.55
2019-02-12T00:38:47.030Z,101717.64
2019-02-12T00:41:16.704Z,101714.91
2019-02-12T00:43:46.699Z,101720.24
2019-02-12T00:46:16.554Z,101713.39
2019-02-12T00:48:46.461Z,101704.78
2019-02-12T00:51:17.858Z,101709.33
2019-02-12T00:53:47.826Z,101713.44
2019-02-12T00:56:17.707Z,101721.55
2019-02-12T00:58:47.470Z,101728.81
2019-02-12T01:01:17.166Z,101724.97
2019-02-12T01:03:47.098Z,101732.01
2019-02-12T01:06:16.737Z,101736.40
2019-02-12T01:08:46.578Z,101742.75
2019-02-12T01:11:16.588Z,101750.61
2019-02-12T01:13:46.410Z,101759.01
2019-02-12T01:16:16.209Z,101753.91
2019-02-12T01:18:46.440Z,101752.27
2019-02-12T01:21:16.276Z,101756.00
2019-02-12T01:23:46.265Z,101756.90
2019-02-12T01:26:15.909Z,101762.91
2019-02-12T01:28:45.694Z,101766.54
2019-02-12T01:31:15.609Z,101780.23
2019-02-12T01:33:45.615Z,101785.28
2019-02-12T01:36:18.409Z,101790.48
2019-02-12T01:38:48.286Z,101796.42
2019-02-12T01:41:17.853Z,101805.16
2019-02-12T01:43:47.586Z,101802.42
2019-02-12T01:46:17.550Z,101803.12
2019-02-12T01:48:47.517Z,101799.77
2019-02-12T01:51:17.175Z,101800.58
2019-02-12T01:53:47.146Z,101804.07
2019-02-12T01:56:16.911Z,101808.86
2019-02-12T01:58:46.556Z,101801.12
2019-02-12T02:01:16.525Z,101811.86
2019-02-12T02:03:46.402Z,101824.00
2019-02-12T02:06:16.187Z,101830.19
2019-02-12T02:08:46.146Z,101837.48
2019-02-12T02:11:16.114Z,101835.23
2019-02-12T02:13:46.178Z,101851.91
2019-02-12T02:16:16.069Z,101847.06
2019-02-12T02:18:45.857Z,101849.97
2019-02-12T02:21:15.584Z,101852.85
2019-02-12T02:23:45.513Z,101856.54
2019-02-12T02:26:15.324Z,101865.88
2019-02-12T02:28:45.236Z,101868.41
2019-02-12T02:31:16.189Z,101877.50
2019-02-12T02:33:45.991Z,101860.94
2019-02-12T02:36:16.092Z,101871.81
2019-02-12T02:38:46.091Z,101885.20
2019-02-12T02:41:15.951Z,101892.58
2019-02-12T02:43:45.676Z,101893.27
2019-02-12T02:46:15.524Z,101898.46
2019-02-12T02:48:45.305Z,101889.72
2019-02-12T02:51:15.255Z,101898.84
2019-02-12T02:53:45.272Z,101904.02
2019-02-12T02:56:15.128Z,101903.19
2019-02-12T02:58:44.779Z,101900.59
2019-02-12T03:01:14.610Z,101910.02
2019-02-12T03:03:44.257Z,101900.47
2019-02-12T03:06:14.079Z,101902.23
2019-02-12T03:08:44.199Z,101905.66
2019-02-12T03:11:14.197Z,101921.87
2019-02-12T03:13:43.992Z,101927.56
2019-02-12T03:16:13.761Z,101930.62
2019-02-12T03:18:43.602Z,101932.36
2019-02-12T03:21:13.428Z,101936.16
2019-02-12T03:23:43.622Z,101939.15
2019-02-12T03:26:13.487Z,101935.35
2019-02-12T03:28:43.308Z,101949.29
2019-02-12T03:31:13.072Z,101948.33
2019-02-12T03:33:42.860Z,101959.11
2019-02-12T03:36:12.715Z,101959.85
2019-02-12T03:38:42.489Z,101972.20
2019-02-12T03:41:12.299Z,101966.97
2019-02-12T03:43:41.850Z,101966.45
2019-02-12T03:46:11.630Z,101967.31
2019-02-12T03:48:41.334Z,101968.80
2019-02-12T03:51:12.013Z,101974.81
2019-02-12T03:53:42.251Z,101977.41
2019-02-12T03:56:12.048Z,101975.48
2019-02-12T03:58:42.267Z,101986.83
2019-02-12T04:01:11.968Z,101989.88
2019-02-12T04:03:41.529Z,102006.91
2019-02-12T04:06:11.459Z,102009.51
2019-02-12T04:08:41.141Z,102003.42
2019-02-12T04:11:11.049Z,102003.69
2019-02-12T04:13:40.989Z,102014.97
2019-02-12T04:16:10.566Z,102014.47
2019-02-12T04:18:40.448Z,102011.38
2019-02-12T04:21:10.180Z,102009.52
2019-02-12T04:23:39.728Z,102012.45
2019-02-12T04:26:09.622Z,102007.26
2019-02-12T04:28:39.537Z,102020.39
2019-02-12T04:31:09.303Z,102032.70
2019-02-12T04:33:38.867Z,102040.48
2019-02-12T04:36:08.865Z,102042.28
2019-02-12T04:38:38.480Z,102044.55
2019-02-12T04:41:08.123Z,102048.13
2019-02-12T04:43:37.992Z,102055.92
2019-02-12T04:46:07.838Z,102057.78
2019-02-12T04:48:37.672Z,102055.92
2019-02-12T04:51:07.361Z,102059.31
2019-02-12T04:53:36.966Z,102054.79
2019-02-12T04:56:06.671Z,102062.87
2019-02-12T04:58:36.755Z,102067.73
2019-02-12T05:01:06.377Z,102062.97
2019-02-12T05:03:35.962Z,102068.06
2019-02-12T05:06:05.778Z,102063.53
2019-02-12T05:09:10.374Z,102058.18
2019-02-12T05:11:40.341Z,102060.94
2019-02-12T05:14:10.147Z,102076.02
2019-02-12T05:16:39.757Z,102075.20
2019-02-12T05:19:09.898Z,102077.97
2019-02-12T05:21:39.469Z,102082.98
2019-02-12T05:24:09.251Z,102077.96
2019-02-12T05:26:39.059Z,102084.94
2019-02-12T05:29:08.847Z,102098.07
2019-02-12T05:31:38.550Z,102098.23
2019-02-12T05:34:08.369Z,102095.81
2019-02-12T05:36:38.045Z,102098.54
2019-02-12T05:39:07.825Z,102105.77
2019-02-12T05:41:37.566Z,102113.78
2019-02-12T05:44:07.325Z,102111.29
2019-02-12T05:46:37.144Z,102118.74
2019-02-12T05:49:07.052Z,102126.19
2019-02-12T05:51:36.779Z,102119.48
2019-02-12T05:54:06.802Z,102114.75
2019-02-12T05:56:36.624Z,102125.30
2019-02-12T05:59:06.322Z,102124.67
2019-02-12T06:01:36.388Z,102125.30
2019-02-12T06:04:06.957Z,102130.64
2019-02-12T06:06:36.587Z,102129.84
2019-02-12T06:09:06.755Z,102129.20
2019-02-12T06:11:36.548Z,102135.98
2019-02-12T06:14:06.308Z,102147.19
2019-02-12T06:16:36.017Z,102153.28
2019-02-12T06:19:05.785Z,102156.73
2019-02-12T06:21:35.518Z,102161.45
2019-02-12T06:24:05.261Z,102160.16
2019-02-12T06:26:37.805Z,102163.66
2019-02-12T06:29:07.612Z,102164.69
2019-02-12T06:31:37.449Z,102175.97
2019-02-12T06:34:07.315Z,102175.23
2019-02-12T06:36:36.801Z,102186.89
2019-02-12T06:39:07.984Z,102178.14
2019-02-12T06:41:37.632Z,102177.48
2019-02-12T06:44:07.661Z,102176.36
2019-02-12T06:46:37.373Z,102184.80
2019-02-12T06:49:06.993Z,102185.95
2019-02-12T06:51:36.590Z,102186.59
2019-02-12T06:54:06.253Z,102191.30
2019-02-12T06:56:35.929Z,102199.64
2019-02-12T06:59:05.753Z,102200.22
2019-02-12T07:01:35.670Z,102199.42
2019-02-12T07:04:26.591Z,102204.78
2019-02-12T07:07:36.673Z,102212.23
2019-02-12T07:10:16.608Z,102213.14
2019-02-12T07:13:17.737Z,102226.34
2019-02-12T07:16:14.689Z,102220.17
2019-02-12T07:19:17.108Z,102222.27
2019-02-12T07:22:19.421Z,102225.55
2019-02-12T07:25:36.585Z,102238.34
2019-02-12T07:28:18.346Z,102242.86
2019-02-12T07:31:46.981Z,102247.75
2019-02-12T07:34:54.556Z,102251.14
2019-02-12T07:38:09.555Z,102249.09
2019-02-12T07:41:20.098Z,102251.55
2019-02-12T07:44:23.769Z,102255.23
2019-02-12T07:47:25.366Z,102263.36
2019-02-12T07:50:16.116Z,102263.84
2019-02-12T07:53:09.907Z,102262.22
2019-02-12T07:56:20.317Z,102269.38
2019-02-12T07:59:24.855Z,102259.45
2019-02-12T08:02:48.216Z,102272.84
2019-02-12T08:05:58.536Z,102276.89
2019-02-12T08:09:07.351Z,102288.03
2019-02-12T08:12:19.188Z,102287.70
2019-02-12T08:15:02.646Z,102293.86
2019-02-12T08:18:21.939Z,102291.75
2019-02-12T08:21:16.523Z,102286.38
2019-02-12T08:24:14.100Z,102293.68
2019-02-12T08:27:39.849Z,102290.74
2019-02-12T08:30:41.628Z,102290.56
2019-02-12T08:33:46.754Z,102292.20
2019-02-12T08:36:39.408Z,102296.49
2019-02-12T08:39:27.803Z,102302.41
2019-02-12T08:42:21.665Z,102303.38
2019-02-12T08:45:39.427Z,102306.38
2019-02-12T08:48:21.494Z,102307.05
2019-02-12T08:51:19.324Z,102310.59
2019-02-12T08:54:23.334Z,102317.44
2019-02-12T08:57:08.352Z,102314.39
2019-02-12T09:00:20.752Z,102314.22
2019-02-12T09:03:34.550Z,102319.81
2019-02-12T09:06:33.824Z,102316.73
2019-02-12T09:09:39.089Z,102315.95
2019-02-12T09:12:32.696Z,102320.80
2019-02-12T09:15:19.316Z,102318.63
2019-02-12T09:18:23.616Z,102324.16
2019-02-12T09:21:27.922Z,102315.39
2019-02-12T09:24:50.306Z,102334.86
2019-02-12T09:27:27.227Z,102337.00
2019-02-12T09:30:08.763Z,102336.05
2019-02-12T09:33:11.577Z,102352.96
2019-02-12T09:35:51.548Z,102344.81
2019-02-12T09:38:49.210Z,102341.43
2019-02-12T09:41:32.726Z,102345.33
2019-02-12T09:44:48.896Z,102354.70
2019-02-12T09:48:03.410Z,102352.41
2019-02-12T09:51:22.729Z,102361.31
2019-02-12T09:54:21.694Z,102347.42
2019-02-12T09:57:26.280Z,102355.23
2019-02-12T10:00:20.232Z,102358.14
2019-02-12T10:03:25.303Z,102366.53
2019-02-12T10:06:38.908Z,102358.53
2019-02-12T10:09:55.255Z,102355.98
2019-02-12T10:12:34.034Z,102358.30
2019-02-12T10:15:43.360Z,102358.56
2019-02-12T10:19:05.500Z,102364.25
2019-02-12T10:22:00.825Z,102344.91
2019-02-12T10:25:06.636Z,102344.91
2019-02-12T10:28:26.209Z,102352.20
2019-02-12T10:31:15.316Z,102352.20
2019-02-12T10:33:45.607Z,102353.36
2019-02-12T10:36:15.383Z,102364.00
2019-02-12T10:38:47.755Z,102351.63
2019-02-12T10:41:17.415Z,102360.30
2019-02-12T10:43:46.962Z,102361.27
2019-02-12T10:46:16.891Z,102370.88
2019-02-12T10:48:46.445Z,102370.88
2019-02-12T10:51:16.411Z,102354.47
2019-02-12T10:53:46.451Z,102358.64
2019-02-12T10:56:16.330Z,102363.94
2019-02-12T10:58:46.142Z,102365.63
2019-02-12T11:01:16.112Z,102369.89
2019-02-12T11:03:46.097Z,102369.89
2019-02-12T11:06:15.953Z,102375.11
2019-02-12T11:08:46.278Z,102366.19
2019-02-12T11:11:16.378Z,102368.59
2019-02-12T11:13:46.381Z,102362.17
2019-02-12T11:16:16.219Z,102357.80
2019-02-12T11:18:46.086Z,102357.40
2019-02-12T11:21:15.817Z,102357.40
2019-02-12T11:23:45.605Z,102361.36
2019-02-12T11:26:15.557Z,102365.20
2019-02-12T11:28:45.425Z,102365.20
2019-02-12T11:31:15.462Z,102374.20
2019-02-12T11:33:45.407Z,102374.20
2019-02-12T11:36:15.279Z,102369.69
2019-02-12T11:38:45.195Z,102372.08
2019-02-12T11:41:15.260Z,102362.45
2019-02-12T11:43:45.397Z,102358.97
2019-02-12T11:46:15.169Z,102357.95
2019-02-12T11:48:45.326Z,102357.95
2019-02-12T11:51:15.150Z,102371.33
2019-02-12T11:53:45.063Z,102371.33
2019-02-12T11:56:15.036Z,102361.67
2019-02-12T11:58:45.067Z,102371.46
2019-02-12T12:01:21.517Z,102377.17
2019-02-12T12:03:51.296Z,102377.23
2019-02-12T12:06:20.905Z,102377.23
2019-02-12T12:08:50.667Z,102379.53
2019-02-12T12:11:20.717Z,102379.53
2019-02-12T12:13:50.497Z,102378.06
2019-02-12T12:16:20.258Z,102372.98
2019-02-12T12:18:49.960Z,102376.73
2019-02-12T12:21:19.571Z,102376.73
2019-02-12T12:23:49.573Z,102377.44
2019-02-12T12:26:19.207Z,102391.02
2019-02-12T12:28:48.964Z,102389.50
2019-02-12T12:31:18.494Z,102389.50
2019-02-12T12:33:48.272Z,102396.23
2019-02-12T12:36:18.153Z,102388.61
2019-02-12T12:38:47.833Z,102387.72
2019-02-12T12:41:17.479Z,102374.69
2019-02-12T12:43:47.371Z,102386.98
2019-02-12T12:46:17.047Z,102386.98
2019-02-12T12:48:46.743Z,102379.70
2019-02-12T12:51:16.756Z,102390.33
2019-02-12T12:53:46.453Z,102385.80
2019-02-12T12:56:16.264Z,102389.28
2019-02-12T12:58:46.420Z,102391.73
2019-02-12T13:01:16.909Z,102391.97
2019-02-12T13:03:46.582Z,102383.61
2019-02-12T13:06:16.704Z,102385.61
2019-02-12T13:08:46.451Z,102375.80
2019-02-12T13:11:16.367Z,102376.34
2019-02-12T13:13:47.921Z,102376.34
2019-02-12T13:16:17.724Z,102374.29
2019-02-12T13:18:47.571Z,102369.83
2019-02-12T13:21:17.221Z,102374.09
2019-02-12T13:23:46.867Z,102371.48
2019-02-12T13:26:16.815Z,102361.95
2019-02-12T13:28:46.544Z,102364.97
2019-02-12T13:31:16.662Z,102365.45
2019-02-12T13:33:46.589Z,102365.45
2019-02-12T13:36:16.497Z,102352.17
2019-02-12T13:38:46.518Z,102365.37
2019-02-12T13:41:16.414Z,102354.12
2019-02-12T13:43:46.338Z,102355.64
2019-02-12T13:46:16.336Z,102353.03
2019-02-12T13:48:46.591Z,102350.42
2019-02-12T13:51:16.618Z,102356.05
2019-02-12T13:53:46.702Z,102181.78
2019-02-12T13:56:16.641Z,102351.50
2019-02-12T13:58:46.559Z,102351.84
2019-02-12T14:01:16.597Z,102344.09
2019-02-12T14:03:46.597Z,102343.22
2019-02-12T14:06:16.542Z,102338.87
2019-02-12T14:08:46.506Z,102342.47
2019-02-12T14:11:16.350Z,102334.23
2019-02-12T14:13:48.465Z,102339.80
2019-02-12T14:16:18.080Z,102338.20
2019-02-12T14:18:47.910Z,102336.14
2019-02-12T14:21:18.052Z,102344.31
2019-02-12T14:23:47.644Z,102352.25
2019-02-12T14:26:17.238Z,102348.08
2019-02-12T14:28:47.134Z,102347.38
2019-02-12T14:31:16.911Z,102347.94
2019-02-12T14:33:46.745Z,102342.37
2019-02-12T14:36:16.763Z,102348.58
2019-02-12T14:38:46.594Z,102344.23
2019-02-12T14:41:16.579Z,102344.23
2019-02-12T14:43:46.635Z,102344.23
2019-02-12T14:46:16.520Z,102338.76
2019-02-12T14:48:46.637Z,102340.06
2019-02-12T14:51:16.717Z,102337.11
2019-02-12T14:53:46.514Z,102339.27
2019-02-12T14:56:16.733Z,102348.08
2019-02-12T14:58:46.712Z,102333.80
2019-02-12T15:01:16.575Z,102333.80
2019-02-12T15:03:47.006Z,102334.70
2019-02-12T15:06:16.984Z,102332.45
2019-02-12T15:08:46.611Z,102331.69
2019-02-12T15:11:16.722Z,102162.59
2019-02-12T15:13:46.581Z,102328.59
2019-02-12T15:16:16.536Z,102323.23
2019-02-12T15:18:47.694Z,102322.02
2019-02-12T15:21:17.572Z,102323.44
2019-02-12T15:23:47.566Z,102323.44
2019-02-12T15:26:17.309Z,102323.03
2019-02-12T15:28:46.984Z,102321.52
2019-02-12T15:31:16.693Z,102320.83
2019-02-12T15:33:46.512Z,102314.45
2019-02-12T15:36:16.650Z,102311.70
2019-02-12T15:38:46.661Z,102309.95
2019-02-12T15:41:16.507Z,102299.12
2019-02-12T15:43:46.523Z,102292.92
2019-02-12T15:46:16.485Z,102292.92
2019-02-12T15:48:46.268Z,102289.16
2019-02-12T15:51:16.597Z,102289.16
2019-02-12T15:53:46.667Z,102284.29
2019-02-12T15:56:16.778Z,102278.53
2019-02-12T15:58:46.429Z,102278.53
2019-02-12T16:01:16.561Z,102273.17
2019-02-12T16:03:46.532Z,102268.86
2019-02-12T16:06:17.671Z,102261.80
2019-02-12T16:08:48.035Z,102265.50
2019-02-12T16:11:19.138Z,102250.96
2019-02-12T16:13:49.449Z,102250.96
2019-02-12T16:16:19.282Z,102254.80
2019-02-12T16:18:48.931Z,102247.98
2019-02-12T16:21:18.929Z,102247.17
2019-02-12T16:23:48.581Z,102239.30
2019-02-12T16:26:18.284Z,102248.76
2019-02-12T16:28:48.237Z,102248.76
2019-02-12T16:31:18.649Z,102237.67
2019-02-12T16:33:48.508Z,102237.67
2019-02-12T16:36:18.591Z,102225.84
2019-02-12T16:38:48.992Z,102234.19
2019-02-12T16:41:18.740Z,102227.81
2019-02-12T16:43:48.626Z,102224.75
2019-02-12T16:46:20.696Z,102219.86
2019-02-12T16:48:50.501Z,102226.66
2019-02-12T16:51:21.335Z,102227.88
2019-02-12T16:53:51.142Z,102227.88
2019-02-12T16:56:20.781Z,102225.13
2019-02-12T16:58:50.586Z,102222.98
2019-02-12T17:01:20.476Z,102207.02
2019-02-12T17:03:50.112Z,102207.02
2019-02-12T17:06:20.026Z,102208.78
2019-02-12T17:08:49.638Z,102207.70
2019-02-12T17:11:19.594Z,102220.88
2019-02-12T17:13:52.106Z,102220.88
2019-02-12T17:16:21.759Z,102215.30
2019-02-12T17:19:10.312Z,102207.02
2019-02-12T17:21:40.160Z,102212.09
2019-02-12T17:24:10.325Z,102207.02
2019-02-12T17:26:40.414Z,102195.75
2019-02-12T17:29:10.345Z,102208.02
2019-02-12T17:31:39.925Z,102200.39
2019-02-12T17:34:09.862Z,102192.46
2019-02-12T17:36:39.746Z,102192.46
2019-02-12T17:39:09.518Z,102191.61
2019-02-12T17:41:39.352Z,102191.61
2019-02-12T17:44:09.174Z,102178.93
2019-02-12T17:46:38.883Z,102184.86
2019-02-12T17:49:08.661Z,102188.63
2019-02-12T17:51:39.509Z,102192.77
2019-02-12T17:54:09.684Z,102191.81
2019-02-12T17:56:39.188Z,102183.28
2019-02-12T17:59:09.032Z,102191.67
2019-02-12T18:01:38.722Z,102192.92
2019-02-12T18:04:08.587Z,102189.22
2019-02-12T18:06:38.512Z,102186.56
2019-02-12T18:09:08.796Z,102178.04
2019-02-12T18:11:38.440Z,102178.17
2019-02-12T18:14:08.492Z,102164.48
2019-02-12T18:16:38.058Z,102164.48
2019-02-12T18:19:07.775Z,102162.64
2019-02-12T18:21:37.495Z,102140.03
2019-02-12T18:24:07.514Z,102140.03
2019-02-12T18:26:37.065Z,102152.03
2019-02-12T18:29:06.913Z,102146.06
2019-02-12T18:31:36.566Z,102134.61
2019-02-12T18:34:06.301Z,102142.45
2019-02-12T18:36:36.556Z,102134.20
2019-02-12T18:39:07.623Z,102129.30
2019-02-12T18:41:37.348Z,102129.30
2019-02-12T18:44:06.960Z,102114.10
2019-02-12T18:46:36.651Z,102114.10
2019-02-12T18:49:06.589Z,102105.45
2019-02-12T18:51:36.202Z,102102.19
2019-02-12T18:54:05.919Z,102084.91
2019-02-12T18:56:41.428Z,102082.09
2019-02-12T18:59:07.230Z,102081.66
2019-02-12T19:01:37.000Z,102066.73
2019-02-12T19:04:06.855Z,102065.78
2019-02-12T19:06:36.478Z,102059.41
2019-02-12T19:09:12.868Z,102061.45
2019-02-12T19:11:52.638Z,102060.52
2019-02-12T19:14:14.848Z,102049.02
2019-02-12T19:16:44.545Z,102053.42
2019-02-12T19:19:14.194Z,102061.47
2019-02-12T19:21:44.230Z,102054.55
2019-02-12T19:24:14.242Z,102044.45
2019-02-12T19:26:49.814Z,102026.34
2019-02-12T19:29:16.065Z,102026.34
2019-02-12T19:31:46.028Z,102027.83
2019-02-12T19:34:16.097Z,102028.82
2019-02-12T19:36:46.104Z,102031.29
2019-02-12T19:39:16.145Z,102022.71
2019-02-12T19:41:46.195Z,102019.25
2019-02-12T19:44:16.683Z,102017.08
2019-02-12T19:46:47.785Z,102024.46
2019-02-12T19:49:17.908Z,102013.28
2019-02-12T19:51:47.873Z,102025.09
2019-02-12T19:54:17.849Z,102025.09
2019-02-12T19:56:48.606Z,102013.81
2019-02-12T19:59:18.477Z,102018.30
2019-02-12T20:01:48.372Z,102011.79
2019-02-12T20:04:18.777Z,102011.79
2019-02-12T20:06:48.821Z,101855.23
2019-02-12T20:09:22.014Z,102020.69
2019-02-12T20:11:52.159Z,102005.28
2019-02-12T20:14:22.080Z,102006.71
2019-02-12T20:16:52.208Z,102014.39
2019-02-12T20:19:22.018Z,102012.51
2019-02-12T20:21:51.893Z,102003.26
2019-02-12T20:24:22.513Z,101998.44
2019-02-12T20:26:52.741Z,101998.44
2019-02-12T20:29:22.835Z,101999.97
2019-02-12T20:31:52.631Z,102001.85
2019-02-12T20:34:22.457Z,101984.38
2019-02-12T20:36:52.165Z,101984.38
2019-02-12T20:39:22.018Z,101983.61
2019-02-12T20:41:52.144Z,101979.21
2019-02-12T20:44:21.816Z,101979.21
2019-02-12T20:46:51.754Z,101969.77
2019-02-12T20:49:21.493Z,101970.11
2019-02-12T20:51:51.169Z,101970.11
2019-02-12T20:54:20.978Z,101964.09
2019-02-12T20:56:50.673Z,101966.20
2019-02-12T20:59:21.207Z,101952.69
2019-02-12T21:01:51.385Z,101952.47
2019-02-12T21:04:21.098Z,101952.47
2019-02-12T21:06:50.709Z,101952.59
2019-02-12T21:09:20.594Z,101949.26
2019-02-12T21:11:50.300Z,101938.96
2019-02-12T21:14:20.191Z,101940.27
2019-02-12T21:16:50.153Z,101945.16
2019-02-12T21:19:20.100Z,101944.39
2019-02-12T21:21:49.689Z,101933.51
2019-02-12T21:24:20.108Z,101938.36
2019-02-12T21:26:49.776Z,101935.75
2019-02-12T21:29:19.872Z,101768.59
2019-02-12T21:31:51.135Z,101922.36
2019-02-12T21:34:21.053Z,101941.42
2019-02-12T21:36:50.995Z,101936.20
2019-02-12T21:39:23.285Z,101940.97
2019-02-12T21:41:53.011Z,101917.72
2019-02-12T21:44:23.063Z,101917.72
2019-02-12T21:46:52.884Z,101928.39
2019-02-12T21:49:22.902Z,101920.98
2019-02-12T21:51:52.794Z,101908.26
2019-02-12T21:54:22.550Z,101881.17
2019-02-12T21:56:52.328Z,101900.44
2019-02-12T21:59:22.266Z,101890.98
2019-02-12T22:01:52.102Z,101893.59
2019-02-12T22:04:21.805Z,101892.94
2019-02-12T22:06:51.517Z,101884.34
2019-02-12T22:09:21.338Z,101884.34
2019-02-12T22:11:51.111Z,101869.18
2019-02-12T22:14:20.960Z,101871.27
2019-02-12T22:16:50.826Z,101856.48
2019-02-12T22:19:21.301Z,101860.73
2019-02-12T22:21:50.888Z,101860.73
2019-02-12T22:24:20.799Z,101862.57
2019-02-12T22:26:50.517Z,101853.36
2019-02-12T22:29:20.236Z,101858.58
2019-02-12T22:31:50.274Z,101850.09
2019-02-12T22:34:20.051Z,101839.55
2019-02-12T22:36:49.742Z,101856.87
2019-02-12T22:39:19.763Z,101866.48
2019-02-12T22:41:49.355Z,101866.48
2019-02-12T22:44:19.039Z,101851.61
2019-02-12T22:46:48.892Z,101851.61
2019-02-12T22:49:18.756Z,101854.63
2019-02-12T22:51:48.413Z,101848.23
2019-02-12T22:54:18.190Z,101818.64
2019-02-12T22:56:47.852Z,101818.64
2019-02-12T22:59:17.604Z,101821.30
2019-02-12T23:01:47.827Z,101813.47
2019-02-12T23:04:17.766Z,101813.42
2019-02-12T23:06:47.397Z,101813.42
2019-02-12T23:09:18.443Z,101809.92
2019-02-12T23:11:48.141Z,101804.70
2019-02-12T23:14:17.849Z,101804.70
2019-02-12T23:16:47.670Z,101793.45
2019-02-12T23:19:17.469Z,101779.56
2019-02-12T23:21:47.197Z,101779.56
2019-02-12T23:24:19.135Z,101773.00
2019-02-12T23:26:48.927Z,101760.85
2019-02-12T23:29:18.503Z,101760.85
2019-02-12T23:31:48.325Z,101770.06
2019-02-12T23:34:18.159Z,101779.11
2019-02-12T23:36:47.761Z,101779.11
2019-02-12T23:39:17.704Z,101778.63
2019-02-12T23:41:47.442Z,101772.78
2019-02-12T23:44:17.133Z,101749.94
2019-02-12T23:46:46.881Z,101753.48
2019-02-12T23:49:16.579Z,101753.48
2019-02-12T23:51:46.471Z,101743.16
2019-02-12T23:54:16.476Z,101735.59
2019-02-12T23:56:46.281Z,101717.55
2019-02-12T23:59:16.143Z,101717.55
